Portada
METAR-TAF:

METAR-TAF

Aeroports :

Zaqatala, Azerbaidjan

latitud: 41-33-44N, longitud: 46-40-02E, altitud: 330 m

Observació

L'informe es va fer fa 48 minuts, a les 22:00 UTC
Vent 8 kt del Est
Temperatura 3°C
Humitat 75%
Pressió 1029 hPa
Visibilitat 10 km o més

METAR: UBBY 182200Z 09008KT 9999 NSC 03/M01 Q1029 R33/////// NOSIG RMK MT OP

Hora: 02:48 (22:48 UTC)

Pronòstic

L'informe es va fer fa 2 hores i 48 minuts, a les 20:00 UTC
Pronòstic vàlid del 18 a les 21 UTC al 19 a les 06 UTC
Vent 4 kt amb direcció variable
Visibilitat 10 km o més

TAF: UBBY 182000Z 1821/1906 VRB04KT 9999 NSC

Observacions i pronòstics meteorològics de més de 4000 aeroports (METAR i TAF).

Les estacions disponibles són els punts grocs i vermells al mapa.

Posi el ratolí al punt desitjat per veure el nom de l'estació.

Feu clic per veure les observacions i els pronòstics meteorològics.

Per canviar el mapa: feu clic els botons verds amb una creu de color negre per apropar; al botó verd amb un guió per allunyar la imatge; o en les fletxes verdes per a mapes adjacents.


METAR-TAF: